sensor_id;sensor_type;location;lat;lon;timestamp;P1;durP1;ratioP1;P2;durP2;ratioP2
41711;SDS011;27399;51.516;13.670;2023-04-06T00:01:27;7.18;;;2.85;;
41711;SDS011;27399;51.516;13.670;2023-04-06T00:03:52;6.55;;;3.25;;
41711;SDS011;27399;51.516;13.670;2023-04-06T00:06:18;6.72;;;2.53;;
41711;SDS011;27399;51.516;13.670;2023-04-06T00:08:45;5.60;;;2.58;;
41711;SDS011;27399;51.516;13.670;2023-04-06T00:11:10;6.63;;;2.80;;
41711;SDS011;27399;51.516;13.670;2023-04-06T00:13:36;5.57;;;2.53;;
41711;SDS011;27399;51.516;13.670;2023-04-06T00:16:02;5.03;;;2.75;;
41711;SDS011;27399;51.516;13.670;2023-04-06T00:18:28;6.82;;;3.38;;
41711;SDS011;27399;51.516;13.670;2023-04-06T00:20:53;7.90;;;3.50;;
41711;SDS011;27399;51.516;13.670;2023-04-06T00:23:19;9.40;;;3.50;;
41711;SDS011;27399;51.516;13.670;2023-04-06T00:25:45;8.65;;;2.97;;
41711;SDS011;27399;51.516;13.670;2023-04-06T00:28:10;9.75;;;3.10;;
41711;SDS011;27399;51.516;13.670;2023-04-06T00:30:36;6.05;;;3.10;;
41711;SDS011;27399;51.516;13.670;2023-04-06T00:33:02;8.25;;;3.28;;
41711;SDS011;27399;51.516;13.670;2023-04-06T00:35:27;7.43;;;3.13;;
41711;SDS011;27399;51.516;13.670;2023-04-06T00:37:53;9.05;;;3.20;;
41711;SDS011;27399;51.516;13.670;2023-04-06T00:40:19;6.85;;;3.30;;
41711;SDS011;27399;51.516;13.670;2023-04-06T00:42:45;5.97;;;3.30;;
41711;SDS011;27399;51.516;13.670;2023-04-06T00:45:10;7.63;;;3.58;;
41711;SDS011;27399;51.516;13.670;2023-04-06T00:47:36;11.45;;;3.42;;
41711;SDS011;27399;51.516;13.670;2023-04-06T00:50:02;6.80;;;2.88;;
41711;SDS011;27399;51.516;13.670;2023-04-06T00:52:28;8.88;;;3.25;;
41711;SDS011;27399;51.516;13.670;2023-04-06T00:54:53;8.68;;;3.83;;
41711;SDS011;27399;51.516;13.670;2023-04-06T00:57:19;9.57;;;2.92;;
41711;SDS011;27399;51.516;13.670;2023-04-06T00:59:45;10.65;;;2.95;;
41711;SDS011;27399;51.516;13.670;2023-04-06T01:02:12;9.80;;;3.13;;
41711;SDS011;27399;51.516;13.670;2023-04-06T01:04:37;8.05;;;3.10;;
41711;SDS011;27399;51.516;13.670;2023-04-06T01:07:03;5.47;;;2.58;;
41711;SDS011;27399;51.516;13.670;2023-04-06T01:09:29;8.70;;;2.75;;
41711;SDS011;27399;51.516;13.670;2023-04-06T01:11:56;7.75;;;3.28;;
41711;SDS011;27399;51.516;13.670;2023-04-06T01:14:23;7.35;;;2.90;;
41711;SDS011;27399;51.516;13.670;2023-04-06T01:16:49;8.50;;;2.92;;
41711;SDS011;27399;51.516;13.670;2023-04-06T01:19:15;6.90;;;2.80;;
41711;SDS011;27399;51.516;13.670;2023-04-06T01:21:41;6.85;;;3.08;;
41711;SDS011;27399;51.516;13.670;2023-04-06T01:24:07;5.40;;;3.20;;
41711;SDS011;27399;51.516;13.670;2023-04-06T01:26:34;10.40;;;2.97;;
41711;SDS011;27399;51.516;13.670;2023-04-06T01:29:00;7.20;;;2.80;;
41711;SDS011;27399;51.516;13.670;2023-04-06T01:31:27;4.72;;;2.75;;
41711;SDS011;27399;51.516;13.670;2023-04-06T01:33:53;5.97;;;2.47;;
41711;SDS011;27399;51.516;13.670;2023-04-06T01:36:19;6.18;;;3.08;;
41711;SDS011;27399;51.516;13.670;2023-04-06T01:38:45;4.30;;;2.58;;
41711;SDS011;27399;51.516;13.670;2023-04-06T01:41:11;6.57;;;3.15;;
41711;SDS011;27399;51.516;13.670;2023-04-06T01:43:37;6.20;;;2.50;;
41711;SDS011;27399;51.516;13.670;2023-04-06T01:46:02;13.20;;;2.95;;
41711;SDS011;27399;51.516;13.670;2023-04-06T01:48:28;8.10;;;3.25;;
41711;SDS011;27399;51.516;13.670;2023-04-06T01:50:54;7.97;;;3.05;;
41711;SDS011;27399;51.516;13.670;2023-04-06T01:53:20;11.93;;;3.25;;
41711;SDS011;27399;51.516;13.670;2023-04-06T01:55:46;8.80;;;3.40;;
41711;SDS011;27399;51.516;13.670;2023-04-06T01:58:12;6.53;;;2.80;;
41711;SDS011;27399;51.516;13.670;2023-04-06T02:00:38;9.40;;;3.03;;
41711;SDS011;27399;51.516;13.670;2023-04-06T02:03:04;5.53;;;2.83;;
41711;SDS011;27399;51.516;13.670;2023-04-06T02:05:30;6.05;;;2.75;;
41711;SDS011;27399;51.516;13.670;2023-04-06T02:07:58;8.57;;;3.15;;
41711;SDS011;27399;51.516;13.670;2023-04-06T02:10:23;7.85;;;3.20;;
41711;SDS011;27399;51.516;13.670;2023-04-06T02:12:49;9.02;;;3.40;;
41711;SDS011;27399;51.516;13.670;2023-04-06T02:15:15;4.95;;;2.60;;
41711;SDS011;27399;51.516;13.670;2023-04-06T02:17:41;8.50;;;3.08;;
41711;SDS011;27399;51.516;13.670;2023-04-06T02:20:07;9.73;;;3.45;;
41711;SDS011;27399;51.516;13.670;2023-04-06T02:22:34;9.43;;;3.05;;
41711;SDS011;27399;51.516;13.670;2023-04-06T02:25:00;8.25;;;3.00;;
41711;SDS011;27399;51.516;13.670;2023-04-06T02:27:26;7.15;;;2.92;;
41711;SDS011;27399;51.516;13.670;2023-04-06T02:29:52;10.93;;;3.13;;
41711;SDS011;27399;51.516;13.670;2023-04-06T02:32:17;6.18;;;2.78;;
41711;SDS011;27399;51.516;13.670;2023-04-06T02:34:43;6.40;;;3.38;;
41711;SDS011;27399;51.516;13.670;2023-04-06T02:37:08;12.13;;;3.28;;
41711;SDS011;27399;51.516;13.670;2023-04-06T02:39:34;11.60;;;3.63;;
41711;SDS011;27399;51.516;13.670;2023-04-06T02:42:00;7.45;;;2.80;;
41711;SDS011;27399;51.516;13.670;2023-04-06T02:44:26;5.88;;;2.80;;
41711;SDS011;27399;51.516;13.670;2023-04-06T02:46:51;9.93;;;3.10;;
41711;SDS011;27399;51.516;13.670;2023-04-06T02:49:17;9.82;;;3.58;;
41711;SDS011;27399;51.516;13.670;2023-04-06T02:51:42;6.20;;;3.05;;
41711;SDS011;27399;51.516;13.670;2023-04-06T02:54:08;6.28;;;2.97;;
41711;SDS011;27399;51.516;13.670;2023-04-06T02:56:34;8.38;;;2.78;;
41711;SDS011;27399;51.516;13.670;2023-04-06T02:59:00;6.90;;;2.78;;
41711;SDS011;27399;51.516;13.670;2023-04-06T03:01:26;9.02;;;3.05;;
41711;SDS011;27399;51.516;13.670;2023-04-06T03:03:51;7.45;;;3.10;;
41711;SDS011;27399;51.516;13.670;2023-04-06T03:06:17;10.00;;;3.47;;
41711;SDS011;27399;51.516;13.670;2023-04-06T03:08:43;8.73;;;2.28;;
41711;SDS011;27399;51.516;13.670;2023-04-06T03:11:08;5.53;;;2.95;;
41711;SDS011;27399;51.516;13.670;2023-04-06T03:13:35;6.95;;;2.40;;
41711;SDS011;27399;51.516;13.670;2023-04-06T03:16:03;9.50;;;2.60;;
41711;SDS011;27399;51.516;13.670;2023-04-06T03:18:30;8.10;;;3.25;;
41711;SDS011;27399;51.516;13.670;2023-04-06T03:20:56;10.52;;;3.47;;
41711;SDS011;27399;51.516;13.670;2023-04-06T03:23:22;6.60;;;3.28;;
41711;SDS011;27399;51.516;13.670;2023-04-06T03:25:48;5.32;;;2.70;;
41711;SDS011;27399;51.516;13.670;2023-04-06T03:28:13;6.78;;;3.17;;
41711;SDS011;27399;51.516;13.670;2023-04-06T03:30:39;9.55;;;3.35;;
41711;SDS011;27399;51.516;13.670;2023-04-06T03:33:05;4.85;;;2.95;;
41711;SDS011;27399;51.516;13.670;2023-04-06T03:35:31;6.10;;;3.42;;
41711;SDS011;27399;51.516;13.670;2023-04-06T03:37:56;6.07;;;3.10;;
41711;SDS011;27399;51.516;13.670;2023-04-06T03:40:22;9.15;;;2.38;;
41711;SDS011;27399;51.516;13.670;2023-04-06T03:42:48;7.05;;;3.15;;
41711;SDS011;27399;51.516;13.670;2023-04-06T03:45:14;8.15;;;3.60;;
41711;SDS011;27399;51.516;13.670;2023-04-06T03:47:40;6.45;;;2.92;;
41711;SDS011;27399;51.516;13.670;2023-04-06T03:50:05;6.28;;;2.92;;
41711;SDS011;27399;51.516;13.670;2023-04-06T03:52:31;6.85;;;2.55;;
41711;SDS011;27399;51.516;13.670;2023-04-06T03:54:57;17.85;;;3.88;;
41711;SDS011;27399;51.516;13.670;2023-04-06T03:57:23;13.07;;;3.92;;
41711;SDS011;27399;51.516;13.670;2023-04-06T03:59:48;12.57;;;3.65;;
41711;SDS011;27399;51.516;13.670;2023-04-06T04:02:14;10.20;;;2.80;;
41711;SDS011;27399;51.516;13.670;2023-04-06T04:04:40;6.80;;;2.72;;
41711;SDS011;27399;51.516;13.670;2023-04-06T04:07:05;5.88;;;2.60;;
41711;SDS011;27399;51.516;13.670;2023-04-06T04:09:31;7.05;;;3.20;;
41711;SDS011;27399;51.516;13.670;2023-04-06T04:11:57;6.55;;;2.67;;
41711;SDS011;27399;51.516;13.670;2023-04-06T04:14:22;5.25;;;2.85;;
41711;SDS011;27399;51.516;13.670;2023-04-06T04:16:48;9.35;;;3.22;;
41711;SDS011;27399;51.516;13.670;2023-04-06T04:19:14;11.70;;;3.28;;
41711;SDS011;27399;51.516;13.670;2023-04-06T04:21:43;5.82;;;2.85;;
41711;SDS011;27399;51.516;13.670;2023-04-06T04:24:10;7.03;;;3.17;;
41711;SDS011;27399;51.516;13.670;2023-04-06T04:26:37;6.20;;;2.85;;
41711;SDS011;27399;51.516;13.670;2023-04-06T04:29:03;9.38;;;3.15;;
41711;SDS011;27399;51.516;13.670;2023-04-06T04:31:28;7.72;;;2.80;;
41711;SDS011;27399;51.516;13.670;2023-04-06T04:33:54;5.18;;;2.28;;
41711;SDS011;27399;51.516;13.670;2023-04-06T04:36:20;5.97;;;2.95;;
41711;SDS011;27399;51.516;13.670;2023-04-06T04:38:46;8.27;;;3.20;;
41711;SDS011;27399;51.516;13.670;2023-04-06T04:41:12;8.60;;;3.10;;
41711;SDS011;27399;51.516;13.670;2023-04-06T04:43:37;9.25;;;3.65;;
41711;SDS011;27399;51.516;13.670;2023-04-06T04:46:04;6.00;;;3.20;;
41711;SDS011;27399;51.516;13.670;2023-04-06T04:48:29;8.20;;;2.65;;
41711;SDS011;27399;51.516;13.670;2023-04-06T04:50:55;10.82;;;3.05;;
41711;SDS011;27399;51.516;13.670;2023-04-06T04:53:21;6.35;;;3.33;;
41711;SDS011;27399;51.516;13.670;2023-04-06T04:55:47;6.50;;;3.15;;
41711;SDS011;27399;51.516;13.670;2023-04-06T04:58:13;5.75;;;2.92;;
41711;SDS011;27399;51.516;13.670;2023-04-06T05:00:42;7.93;;;3.92;;
41711;SDS011;27399;51.516;13.670;2023-04-06T05:03:08;7.05;;;3.00;;
41711;SDS011;27399;51.516;13.670;2023-04-06T05:05:38;7.65;;;3.70;;
41711;SDS011;27399;51.516;13.670;2023-04-06T05:08:03;10.32;;;3.90;;
41711;SDS011;27399;51.516;13.670;2023-04-06T05:10:29;10.23;;;3.65;;
41711;SDS011;27399;51.516;13.670;2023-04-06T05:12:55;10.05;;;2.92;;
41711;SDS011;27399;51.516;13.670;2023-04-06T05:15:20;12.02;;;3.50;;
41711;SDS011;27399;51.516;13.670;2023-04-06T05:17:46;6.95;;;3.38;;
41711;SDS011;27399;51.516;13.670;2023-04-06T05:20:12;5.72;;;2.85;;
41711;SDS011;27399;51.516;13.670;2023-04-06T05:22:38;6.25;;;3.13;;
41711;SDS011;27399;51.516;13.670;2023-04-06T05:25:03;8.02;;;3.53;;
41711;SDS011;27399;51.516;13.670;2023-04-06T05:27:29;9.10;;;2.50;;
41711;SDS011;27399;51.516;13.670;2023-04-06T05:29:55;7.13;;;3.40;;
41711;SDS011;27399;51.516;13.670;2023-04-06T05:32:21;15.23;;;3.53;;
41711;SDS011;27399;51.516;13.670;2023-04-06T05:34:48;10.90;;;3.70;;
41711;SDS011;27399;51.516;13.670;2023-04-06T05:37:17;4.82;;;2.78;;
41711;SDS011;27399;51.516;13.670;2023-04-06T05:39:43;7.57;;;2.85;;
41711;SDS011;27399;51.516;13.670;2023-04-06T05:42:08;4.43;;;2.75;;
41711;SDS011;27399;51.516;13.670;2023-04-06T05:44:36;6.60;;;3.35;;
41711;SDS011;27399;51.516;13.670;2023-04-06T05:47:02;6.50;;;3.40;;
41711;SDS011;27399;51.516;13.670;2023-04-06T05:49:28;5.63;;;3.17;;
41711;SDS011;27399;51.516;13.670;2023-04-06T05:51:54;5.30;;;2.97;;
41711;SDS011;27399;51.516;13.670;2023-04-06T05:54:20;6.95;;;3.17;;
41711;SDS011;27399;51.516;13.670;2023-04-06T05:56:45;8.02;;;3.50;;
41711;SDS011;27399;51.516;13.670;2023-04-06T05:59:11;9.05;;;3.60;;
41711;SDS011;27399;51.516;13.670;2023-04-06T06:01:37;6.82;;;3.05;;
41711;SDS011;27399;51.516;13.670;2023-04-06T06:04:03;8.52;;;3.72;;
41711;SDS011;27399;51.516;13.670;2023-04-06T06:06:29;6.82;;;3.45;;
41711;SDS011;27399;51.516;13.670;2023-04-06T06:08:57;9.18;;;3.40;;
41711;SDS011;27399;51.516;13.670;2023-04-06T06:11:25;6.15;;;3.28;;
41711;SDS011;27399;51.516;13.670;2023-04-06T06:13:52;8.18;;;3.45;;
41711;SDS011;27399;51.516;13.670;2023-04-06T06:16:18;10.40;;;4.03;;
41711;SDS011;27399;51.516;13.670;2023-04-06T06:18:44;9.48;;;3.75;;
41711;SDS011;27399;51.516;13.670;2023-04-06T06:21:10;8.38;;;3.25;;
41711;SDS011;27399;51.516;13.670;2023-04-06T06:23:37;7.97;;;3.53;;
41711;SDS011;27399;51.516;13.670;2023-04-06T06:26:03;8.65;;;4.03;;
41711;SDS011;27399;51.516;13.670;2023-04-06T06:28:29;7.15;;;3.42;;
41711;SDS011;27399;51.516;13.670;2023-04-06T06:30:56;10.73;;;3.30;;
41711;SDS011;27399;51.516;13.670;2023-04-06T06:33:21;7.63;;;3.67;;
41711;SDS011;27399;51.516;13.670;2023-04-06T06:35:47;8.63;;;3.30;;
41711;SDS011;27399;51.516;13.670;2023-04-06T06:38:13;8.23;;;3.42;;
41711;SDS011;27399;51.516;13.670;2023-04-06T06:40:39;10.23;;;3.30;;
41711;SDS011;27399;51.516;13.670;2023-04-06T06:43:06;9.15;;;3.05;;
41711;SDS011;27399;51.516;13.670;2023-04-06T06:45:32;5.65;;;3.30;;
41711;SDS011;27399;51.516;13.670;2023-04-06T06:47:58;7.32;;;3.20;;
41711;SDS011;27399;51.516;13.670;2023-04-06T06:50:24;7.65;;;3.33;;
41711;SDS011;27399;51.516;13.670;2023-04-06T06:52:50;6.35;;;3.60;;
41711;SDS011;27399;51.516;13.670;2023-04-06T06:55:15;6.95;;;3.60;;
41711;SDS011;27399;51.516;13.670;2023-04-06T06:57:44;9.40;;;4.05;;
41711;SDS011;27399;51.516;13.670;2023-04-06T07:00:11;6.55;;;3.65;;
41711;SDS011;27399;51.516;13.670;2023-04-06T07:02:38;11.25;;;3.20;;
41711;SDS011;27399;51.516;13.670;2023-04-06T07:05:04;6.03;;;3.33;;
41711;SDS011;27399;51.516;13.670;2023-04-06T07:07:33;6.85;;;3.72;;
41711;SDS011;27399;51.516;13.670;2023-04-06T07:09:59;8.10;;;3.92;;
41711;SDS011;27399;51.516;13.670;2023-04-06T07:12:26;9.00;;;4.00;;
41711;SDS011;27399;51.516;13.670;2023-04-06T07:14:52;7.13;;;3.70;;
41711;SDS011;27399;51.516;13.670;2023-04-06T07:24:01;7.28;;;3.22;;
41711;SDS011;27399;51.516;13.670;2023-04-06T07:26:27;9.20;;;3.22;;
41711;SDS011;27399;51.516;13.670;2023-04-06T07:28:53;9.48;;;3.33;;
41711;SDS011;27399;51.516;13.670;2023-04-06T07:31:19;7.75;;;2.78;;
41711;SDS011;27399;51.516;13.670;2023-04-06T07:33:45;6.75;;;2.40;;
41711;SDS011;27399;51.516;13.670;2023-04-06T07:36:12;7.85;;;2.97;;
41711;SDS011;27399;51.516;13.670;2023-04-06T07:38:37;6.72;;;2.90;;
41711;SDS011;27399;51.516;13.670;2023-04-06T07:41:03;8.48;;;2.70;;
41711;SDS011;27399;51.516;13.670;2023-04-06T07:43:29;7.45;;;3.10;;
41711;SDS011;27399;51.516;13.670;2023-04-06T07:45:55;4.95;;;2.80;;
41711;SDS011;27399;51.516;13.670;2023-04-06T07:48:22;5.68;;;2.60;;
41711;SDS011;27399;51.516;13.670;2023-04-06T07:50:48;7.65;;;2.85;;
41711;SDS011;27399;51.516;13.670;2023-04-06T07:53:14;10.98;;;2.40;;
41711;SDS011;27399;51.516;13.670;2023-04-06T07:55:39;6.93;;;2.83;;
41711;SDS011;27399;51.516;13.670;2023-04-06T07:58:05;7.63;;;2.90;;
41711;SDS011;27399;51.516;13.670;2023-04-06T08:00:31;6.28;;;2.83;;
41711;SDS011;27399;51.516;13.670;2023-04-06T08:02:57;8.85;;;2.90;;
41711;SDS011;27399;51.516;13.670;2023-04-06T08:05:23;5.72;;;2.20;;
41711;SDS011;27399;51.516;13.670;2023-04-06T08:07:48;9.23;;;2.28;;
41711;SDS011;27399;51.516;13.670;2023-04-06T08:10:14;6.28;;;2.47;;
41711;SDS011;27399;51.516;13.670;2023-04-06T08:12:40;7.25;;;2.38;;
41711;SDS011;27399;51.516;13.670;2023-04-06T08:15:05;5.10;;;2.33;;
41711;SDS011;27399;51.516;13.670;2023-04-06T08:17:31;3.83;;;2.40;;
41711;SDS011;27399;51.516;13.670;2023-04-06T08:19:59;6.18;;;2.17;;
41711;SDS011;27399;51.516;13.670;2023-04-06T08:22:25;10.57;;;2.55;;
41711;SDS011;27399;51.516;13.670;2023-04-06T08:24:51;4.40;;;2.20;;
41711;SDS011;27399;51.516;13.670;2023-04-06T08:27:16;8.70;;;2.53;;
41711;SDS011;27399;51.516;13.670;2023-04-06T08:29:42;5.82;;;2.30;;
41711;SDS011;27399;51.516;13.670;2023-04-06T08:32:08;5.32;;;1.80;;
41711;SDS011;27399;51.516;13.670;2023-04-06T08:34:34;4.00;;;2.00;;
41711;SDS011;27399;51.516;13.670;2023-04-06T08:37:00;3.75;;;1.80;;
41711;SDS011;27399;51.516;13.670;2023-04-06T08:39:26;5.05;;;1.88;;
41711;SDS011;27399;51.516;13.670;2023-04-06T08:41:53;5.18;;;1.65;;
41711;SDS011;27399;51.516;13.670;2023-04-06T08:44:22;4.47;;;1.70;;
41711;SDS011;27399;51.516;13.670;2023-04-06T08:46:48;2.58;;;1.60;;
41711;SDS011;27399;51.516;13.670;2023-04-06T08:49:15;4.35;;;1.88;;
41711;SDS011;27399;51.516;13.670;2023-04-06T08:51:41;4.80;;;2.10;;
41711;SDS011;27399;51.516;13.670;2023-04-06T08:54:07;4.10;;;2.00;;
41711;SDS011;27399;51.516;13.670;2023-04-06T08:56:36;4.40;;;2.30;;
41711;SDS011;27399;51.516;13.670;2023-04-06T08:59:04;3.55;;;1.60;;
41711;SDS011;27399;51.516;13.670;2023-04-06T09:01:31;4.35;;;1.77;;
41711;SDS011;27399;51.516;13.670;2023-04-06T09:04:02;3.15;;;1.90;;
41711;SDS011;27399;51.516;13.670;2023-04-06T09:06:34;4.78;;;1.73;;
41711;SDS011;27399;51.516;13.670;2023-04-06T09:08:59;3.28;;;1.73;;
41711;SDS011;27399;51.516;13.670;2023-04-06T09:11:25;4.15;;;1.95;;
41711;SDS011;27399;51.516;13.670;2023-04-06T09:13:52;5.75;;;1.75;;
41711;SDS011;27399;51.516;13.670;2023-04-06T09:16:19;3.47;;;1.85;;
41711;SDS011;27399;51.516;13.670;2023-04-06T09:18:45;5.20;;;2.13;;
41711;SDS011;27399;51.516;13.670;2023-04-06T09:21:12;3.22;;;1.88;;
41711;SDS011;27399;51.516;13.670;2023-04-06T09:23:38;3.83;;;1.85;;
41711;SDS011;27399;51.516;13.670;2023-04-06T09:26:17;3.80;;;2.05;;
41711;SDS011;27399;51.516;13.670;2023-04-06T09:28:49;3.83;;;2.00;;
41711;SDS011;27399;51.516;13.670;2023-04-06T09:31:21;5.05;;;2.33;;
41711;SDS011;27399;51.516;13.670;2023-04-06T09:33:51;3.88;;;2.03;;
41711;SDS011;27399;51.516;13.670;2023-04-06T09:36:19;5.65;;;2.20;;
41711;SDS011;27399;51.516;13.670;2023-04-06T09:38:52;5.97;;;2.20;;
41711;SDS011;27399;51.516;13.670;2023-04-06T09:41:25;3.72;;;1.98;;
41711;SDS011;27399;51.516;13.670;2023-04-06T09:43:52;5.38;;;2.45;;
41711;SDS011;27399;51.516;13.670;2023-04-06T09:46:30;4.50;;;1.88;;
41711;SDS011;27399;51.516;13.670;2023-04-06T09:49:03;3.47;;;1.75;;
41711;SDS011;27399;51.516;13.670;2023-04-06T09:51:31;3.42;;;1.85;;
41711;SDS011;27399;51.516;13.670;2023-04-06T09:54:02;4.57;;;1.65;;
41711;SDS011;27399;51.516;13.670;2023-04-06T10:02:27;2.90;;;1.70;;
41711;SDS011;27399;51.516;13.670;2023-04-06T10:07:40;3.08;;;1.80;;
41711;SDS011;27399;51.516;13.670;2023-04-06T10:10:07;8.70;;;2.97;;
41711;SDS011;27399;51.516;13.670;2023-04-06T10:12:36;3.90;;;1.95;;
41711;SDS011;27399;51.516;13.670;2023-04-06T10:15:03;13.00;;;1.63;;
41711;SDS011;27399;51.516;13.670;2023-04-06T10:17:29;5.05;;;1.75;;
41711;SDS011;27399;51.516;13.670;2023-04-06T10:19:59;5.85;;;1.80;;
41711;SDS011;27399;51.516;13.670;2023-04-06T10:25:51;3.13;;;1.90;;
41711;SDS011;27399;51.516;13.670;2023-04-06T10:28:18;4.53;;;1.85;;
41711;SDS011;27399;51.516;13.670;2023-04-06T10:30:44;2.70;;;1.80;;
41711;SDS011;27399;51.516;13.670;2023-04-06T10:33:13;4.05;;;1.50;;
41711;SDS011;27399;51.516;13.670;2023-04-06T10:35:44;3.50;;;1.83;;
41711;SDS011;27399;51.516;13.670;2023-04-06T10:38:09;4.32;;;1.55;;
41711;SDS011;27399;51.516;13.670;2023-04-06T10:40:37;5.93;;;2.15;;
41711;SDS011;27399;51.516;13.670;2023-04-06T10:43:18;5.63;;;1.77;;
41711;SDS011;27399;51.516;13.670;2023-04-06T10:45:45;4.15;;;1.75;;
41711;SDS011;27399;51.516;13.670;2023-04-06T10:48:22;4.43;;;2.25;;
41711;SDS011;27399;51.516;13.670;2023-04-06T10:50:49;2.80;;;1.90;;
41711;SDS011;27399;51.516;13.670;2023-04-06T10:53:22;2.37;;;1.63;;
41711;SDS011;27399;51.516;13.670;2023-04-06T10:55:52;5.10;;;2.25;;
41711;SDS011;27399;51.516;13.670;2023-04-06T10:58:24;4.33;;;2.20;;
41711;SDS011;27399;51.516;13.670;2023-04-06T11:00:50;3.97;;;1.98;;
41711;SDS011;27399;51.516;13.670;2023-04-06T11:03:17;4.03;;;2.08;;
41711;SDS011;27399;51.516;13.670;2023-04-06T11:05:44;3.60;;;2.10;;
41711;SDS011;27399;51.516;13.670;2023-04-06T11:08:10;4.38;;;2.10;;
41711;SDS011;27399;51.516;13.670;2023-04-06T11:10:47;5.05;;;2.08;;
41711;SDS011;27399;51.516;13.670;2023-04-06T11:13:14;6.70;;;2.63;;
41711;SDS011;27399;51.516;13.670;2023-04-06T11:15:40;3.55;;;2.00;;
41711;SDS011;27399;51.516;13.670;2023-04-06T11:18:05;5.03;;;2.22;;
41711;SDS011;27399;51.516;13.670;2023-04-06T11:20:31;2.60;;;1.40;;
41711;SDS011;27399;51.516;13.670;2023-04-06T11:22:57;4.47;;;2.05;;
41711;SDS011;27399;51.516;13.670;2023-04-06T11:25:24;2.90;;;1.60;;
41711;SDS011;27399;51.516;13.670;2023-04-06T11:27:52;4.90;;;2.17;;
41711;SDS011;27399;51.516;13.670;2023-04-06T11:30:17;5.20;;;1.98;;
41711;SDS011;27399;51.516;13.670;2023-04-06T11:32:44;4.75;;;1.98;;
41711;SDS011;27399;51.516;13.670;2023-04-06T11:35:20;5.78;;;1.73;;
41711;SDS011;27399;51.516;13.670;2023-04-06T11:37:48;3.00;;;1.70;;
41711;SDS011;27399;51.516;13.670;2023-04-06T11:40:15;4.28;;;2.00;;
41711;SDS011;27399;51.516;13.670;2023-04-06T11:42:41;3.92;;;1.95;;
41711;SDS011;27399;51.516;13.670;2023-04-06T11:45:07;3.40;;;1.83;;
41711;SDS011;27399;51.516;13.670;2023-04-06T11:47:34;7.15;;;2.30;;
41711;SDS011;27399;51.516;13.670;2023-04-06T11:52:34;4.47;;;1.65;;
41711;SDS011;27399;51.516;13.670;2023-04-06T11:55:09;4.82;;;1.83;;
41711;SDS011;27399;51.516;13.670;2023-04-06T11:57:37;4.00;;;1.58;;
41711;SDS011;27399;51.516;13.670;2023-04-06T12:00:02;3.38;;;1.60;;
41711;SDS011;27399;51.516;13.670;2023-04-06T12:02:29;4.03;;;2.15;;
41711;SDS011;27399;51.516;13.670;2023-04-06T12:04:57;5.05;;;1.95;;
41711;SDS011;27399;51.516;13.670;2023-04-06T12:07:22;4.90;;;1.80;;
41711;SDS011;27399;51.516;13.670;2023-04-06T12:09:48;5.25;;;1.98;;
41711;SDS011;27399;51.516;13.670;2023-04-06T12:12:14;11.38;;;2.35;;
41711;SDS011;27399;51.516;13.670;2023-04-06T12:14:40;2.58;;;1.58;;
41711;SDS011;27399;51.516;13.670;2023-04-06T12:17:05;3.40;;;1.85;;
41711;SDS011;27399;51.516;13.670;2023-04-06T12:19:31;2.33;;;1.70;;
41711;SDS011;27399;51.516;13.670;2023-04-06T12:21:56;3.53;;;1.92;;
41711;SDS011;27399;51.516;13.670;2023-04-06T12:24:22;2.90;;;1.85;;
41711;SDS011;27399;51.516;13.670;2023-04-06T12:26:48;4.50;;;1.80;;
41711;SDS011;27399;51.516;13.670;2023-04-06T12:29:14;3.72;;;2.17;;
41711;SDS011;27399;51.516;13.670;2023-04-06T12:31:40;5.63;;;2.00;;
41711;SDS011;27399;51.516;13.670;2023-04-06T12:34:08;5.43;;;2.10;;
41711;SDS011;27399;51.516;13.670;2023-04-06T12:36:33;7.70;;;2.08;;
41711;SDS011;27399;51.516;13.670;2023-04-06T12:38:59;3.25;;;1.85;;
41711;SDS011;27399;51.516;13.670;2023-04-06T12:41:26;2.95;;;1.80;;
41711;SDS011;27399;51.516;13.670;2023-04-06T12:43:53;3.40;;;1.83;;
41711;SDS011;27399;51.516;13.670;2023-04-06T12:46:18;3.65;;;1.98;;
41711;SDS011;27399;51.516;13.670;2023-04-06T12:48:45;4.10;;;2.00;;
41711;SDS011;27399;51.516;13.670;2023-04-06T12:51:11;2.47;;;1.77;;
41711;SDS011;27399;51.516;13.670;2023-04-06T12:53:37;2.05;;;1.58;;
41711;SDS011;27399;51.516;13.670;2023-04-06T12:56:09;3.97;;;1.85;;
41711;SDS011;27399;51.516;13.670;2023-04-06T12:58:37;3.28;;;1.85;;
41711;SDS011;27399;51.516;13.670;2023-04-06T13:01:05;4.20;;;2.00;;
41711;SDS011;27399;51.516;13.670;2023-04-06T13:03:32;5.93;;;2.00;;
41711;SDS011;27399;51.516;13.670;2023-04-06T13:05:58;6.25;;;2.08;;
41711;SDS011;27399;51.516;13.670;2023-04-06T13:08:25;5.65;;;2.58;;
41711;SDS011;27399;51.516;13.670;2023-04-06T13:10:52;3.47;;;1.90;;
41711;SDS011;27399;51.516;13.670;2023-04-06T13:13:22;4.10;;;1.63;;
41711;SDS011;27399;51.516;13.670;2023-04-06T13:18:15;5.60;;;1.83;;
41711;SDS011;27399;51.516;13.670;2023-04-06T13:20:41;4.47;;;2.00;;
41711;SDS011;27399;51.516;13.670;2023-04-06T13:23:07;3.22;;;1.90;;
41711;SDS011;27399;51.516;13.670;2023-04-06T13:25:33;3.65;;;1.80;;
41711;SDS011;27399;51.516;13.670;2023-04-06T13:27:58;4.68;;;2.30;;
41711;SDS011;27399;51.516;13.670;2023-04-06T13:30:24;4.18;;;1.80;;
41711;SDS011;27399;51.516;13.670;2023-04-06T13:32:50;5.22;;;1.90;;
41711;SDS011;27399;51.516;13.670;2023-04-06T13:35:16;6.78;;;1.83;;
41711;SDS011;27399;51.516;13.670;2023-04-06T13:37:42;5.78;;;2.10;;
41711;SDS011;27399;51.516;13.670;2023-04-06T13:40:08;2.38;;;1.55;;
41711;SDS011;27399;51.516;13.670;2023-04-06T13:42:34;3.47;;;1.45;;
41711;SDS011;27399;51.516;13.670;2023-04-06T13:45:07;4.07;;;1.70;;
41711;SDS011;27399;51.516;13.670;2023-04-06T13:47:33;2.80;;;1.42;;
41711;SDS011;27399;51.516;13.670;2023-04-06T13:49:59;4.70;;;1.95;;
41711;SDS011;27399;51.516;13.670;2023-04-06T13:52:25;4.20;;;1.92;;
41711;SDS011;27399;51.516;13.670;2023-04-06T13:54:51;7.13;;;1.73;;
41711;SDS011;27399;51.516;13.670;2023-04-06T13:57:18;2.95;;;1.90;;
41711;SDS011;27399;51.516;13.670;2023-04-06T13:59:44;3.38;;;1.63;;
41711;SDS011;27399;51.516;13.670;2023-04-06T14:02:10;3.60;;;1.75;;
41711;SDS011;27399;51.516;13.670;2023-04-06T14:04:36;6.82;;;2.22;;
41711;SDS011;27399;51.516;13.670;2023-04-06T14:07:02;3.10;;;1.63;;
41711;SDS011;27399;51.516;13.670;2023-04-06T14:09:28;4.82;;;1.50;;
41711;SDS011;27399;51.516;13.670;2023-04-06T14:11:55;3.45;;;1.67;;
41711;SDS011;27399;51.516;13.670;2023-04-06T14:14:22;2.65;;;1.42;;
41711;SDS011;27399;51.516;13.670;2023-04-06T14:16:48;2.40;;;1.30;;
41711;SDS011;27399;51.516;13.670;2023-04-06T14:19:14;4.15;;;2.00;;
41711;SDS011;27399;51.516;13.670;2023-04-06T14:21:45;3.25;;;1.55;;
41711;SDS011;27399;51.516;13.670;2023-04-06T14:24:11;4.30;;;1.98;;
41711;SDS011;27399;51.516;13.670;2023-04-06T14:26:39;3.13;;;2.00;;
41711;SDS011;27399;51.516;13.670;2023-04-06T14:29:06;3.28;;;1.75;;
41711;SDS011;27399;51.516;13.670;2023-04-06T14:31:32;4.63;;;2.10;;
41711;SDS011;27399;51.516;13.670;2023-04-06T14:34:00;4.70;;;1.95;;
41711;SDS011;27399;51.516;13.670;2023-04-06T14:36:27;3.47;;;1.40;;
41711;SDS011;27399;51.516;13.670;2023-04-06T14:38:54;3.35;;;2.05;;
41711;SDS011;27399;51.516;13.670;2023-04-06T14:41:22;4.85;;;1.75;;
41711;SDS011;27399;51.516;13.670;2023-04-06T14:43:49;3.05;;;1.92;;
41711;SDS011;27399;51.516;13.670;2023-04-06T14:46:17;4.03;;;1.95;;
41711;SDS011;27399;51.516;13.670;2023-04-06T14:48:43;4.10;;;1.63;;
41711;SDS011;27399;51.516;13.670;2023-04-06T14:51:12;3.53;;;1.58;;
41711;SDS011;27399;51.516;13.670;2023-04-06T14:53:37;3.15;;;1.70;;